Time;durP1;ratioP1;P1;durP2;ratioP2;P2;SDS_P1;SDS_P2;PMS_P1;PMS_P2;Temp;Humidity;BMP_temperature;BMP_pressure;BME280_temperature;BME280_humidity;BME280_pressure;Samples;Min_cycle;Max_cycle;Signal;HPM_P1;HPM_P2
2023/01/07 00:01:30;;;;;;;8.52;5.10;;;7.50;99.90;;;;;;2603528;54;20048;31
2023/01/07 00:04:05;;;;;;;;;;;7.50;99.90;;;;;;2603754;54;20031;31
2023/01/07 00:06:46;;;;;;;7.27;4.10;;;7.40;99.90;;;;;;2603527;54;19941;31
2023/01/07 00:09:21;;;;;;;7.22;4.38;;;7.40;99.90;;;;;;2603526;54;20864;31
2023/01/07 00:11:57;;;;;;;8.30;4.63;;;7.40;99.90;;;;;;2603209;54;20026;31
2023/01/07 00:14:32;;;;;;;9.45;5.20;;;7.40;99.90;;;;;;2602927;54;20026;31
2023/01/07 00:17:08;;;;;;;8.80;5.40;;;7.30;99.90;;;;;;2614751;39;22345;31
2023/01/07 00:19:47;;;;;;;8.07;4.33;;;7.30;99.90;;;;;;2621837;46;20082;31
2023/01/07 00:22:26;;;;;;;7.88;4.40;;;7.30;99.90;;;;;;2603305;54;20022;31
2023/01/07 00:25:01;;;;;;;9.32;4.47;;;7.20;99.90;;;;;;2603151;54;20050;31
2023/01/07 00:27:37;;;;;;;9.07;4.50;;;7.20;99.90;;;;;;2603419;54;20940;31
2023/01/07 00:30:15;;;;;;;8.43;5.38;;;7.20;99.90;;;;;;2603409;54;20065;31
2023/01/07 00:32:58;;;;;;;7.00;4.53;;;7.20;99.90;;;;;;2603172;54;20069;31
2023/01/07 00:35:36;;;;;;;8.48;4.78;;;7.10;99.90;;;;;;2603368;54;20273;31
2023/01/07 00:40:46;;;;;;;9.13;5.10;;;7.00;99.90;;;;;;2603219;54;20030;31
2023/01/07 00:43:22;;;;;;;7.93;4.83;;;7.00;99.90;;;;;;2603401;54;20909;31
2023/01/07 00:45:57;;;;;;;8.45;4.60;;;6.90;99.90;;;;;;2603407;54;20922;31
2023/01/07 00:48:32;;;;;;;8.43;4.60;;;6.80;99.90;;;;;;2602998;54;20045;31
2023/01/07 00:51:07;;;;;;;8.53;4.47;;;6.80;99.90;;;;;;2603342;54;20874;31
2023/01/07 00:53:43;;;;;;;7.33;5.20;;;6.70;99.90;;;;;;2602936;54;20034;31
2023/01/07 00:56:21;;;;;;;8.60;4.55;;;6.70;99.90;;;;;;2603070;54;20112;31
2023/01/07 00:58:56;;;;;;;11.38;5.50;;;6.60;99.90;;;;;;2701598;39;20546;31
2023/01/07 01:01:32;;;;;;;8.70;4.80;;;6.60;99.90;;;;;;2603195;54;20026;31
2023/01/07 01:04:10;;;;;;;9.27;5.13;;;6.50;99.90;;;;;;2602840;54;20105;31
2023/01/07 01:06:44;;;;;;;12.13;7.20;;;6.50;99.90;;;;;;2603020;54;20826;31
2023/01/07 01:09:21;;;;;;;9.57;6.22;;;6.50;99.90;;;;;;2603239;54;20045;31
2023/01/07 01:11:59;;;;;;;10.27;5.82;;;6.40;99.90;;;;;;2603033;54;20584;31
2023/01/07 01:14:34;;;;;;;11.38;7.25;;;6.40;99.90;;;;;;2603289;54;20954;31
2023/01/07 01:17:09;;;;;;;15.85;9.18;;;6.40;99.90;;;;;;2603085;54;20089;31
2023/01/07 01:19:46;;;;;;;18.17;10.57;;;6.30;99.90;;;;;;2602971;54;20038;31
2023/01/07 01:22:23;;;;;;;14.50;8.80;;;6.30;99.90;;;;;;2602996;54;20746;31
2023/01/07 01:24:59;;;;;;;15.35;9.30;;;6.30;99.90;;;;;;2621360;46;20092;31
2023/01/07 01:27:37;;;;;;;11.60;8.43;;;6.30;99.90;;;;;;2603036;54;20046;31
2023/01/07 01:30:14;;;;;;;11.50;6.85;;;6.30;99.90;;;;;;2719702;39;21528;31
2023/01/07 01:32:50;;;;;;;12.43;8.43;;;6.30;99.90;;;;;;2603062;54;20069;31
2023/01/07 01:35:26;;;;;;;;;;;6.30;99.90;;;;;;2603276;54;20034;31
2023/01/07 01:38:02;;;;;;;10.80;7.05;;;6.30;99.90;;;;;;2602916;54;19986;31
2023/01/07 01:40:39;;;;;;;10.40;7.03;;;6.30;99.90;;;;;;2603052;54;20469;31
2023/01/07 01:43:34;;;;;;;8.80;6.25;;;6.30;99.90;;;;;;2602879;54;20100;31
2023/01/07 01:46:13;;;;;;;11.20;6.30;;;6.30;99.90;;;;;;2603101;54;20046;31
2023/01/07 01:48:50;;;;;;;12.23;8.40;;;6.30;99.90;;;;;;2602642;54;20111;31
2023/01/07 01:53:56;;;;;;;11.70;7.45;;;6.30;99.90;;;;;;2602875;54;20093;31
2023/01/07 01:56:32;;;;;;;10.20;7.10;;;6.20;99.90;;;;;;2602703;54;20550;31
2023/01/07 01:59:11;;;;;;;10.18;6.20;;;6.20;99.90;;;;;;2621502;47;20912;31
2023/01/07 02:01:47;;;;;;;12.18;6.45;;;6.20;99.90;;;;;;2603025;54;20022;31
2023/01/07 02:04:29;;;;;;;10.10;7.30;;;6.20;99.90;;;;;;2602772;54;20804;31
2023/01/07 02:07:05;;;;;;;9.50;6.30;;;6.20;99.90;;;;;;2602908;54;20914;31
2023/01/07 02:09:47;;;;;;;8.68;6.13;;;6.20;99.90;;;;;;2603020;54;20026;31
2023/01/07 02:12:28;;;;;;;9.20;5.50;;;6.20;99.90;;;;;;2602604;54;20057;31
2023/01/07 02:15:10;;;;;;;8.65;5.70;;;6.20;99.90;;;;;;2602617;54;20023;31
2023/01/07 02:17:58;;;;;;;7.55;5.18;;;6.10;99.90;;;;;;2602807;54;20043;31
2023/01/07 02:20:31;;;;;;;10.73;6.18;;;6.10;99.90;;;;;;2602693;54;20999;31
2023/01/07 02:23:50;;;;;;;9.10;5.80;;;6.10;99.90;;;;;;2602956;54;21382;31
2023/01/07 02:26:39;;;;;;;8.35;6.10;;;6.10;99.90;;;;;;2602489;54;20033;31
2023/01/07 02:29:59;;;;;;;11.35;6.65;;;6.10;99.90;;;;;;2602656;54;20089;31
2023/01/07 02:32:45;;;;;;;11.98;7.68;;;6.00;99.90;;;;;;2602570;54;20798;31
2023/01/07 02:35:20;;;;;;;14.00;7.30;;;6.00;99.90;;;;;;2602639;54;20801;31
2023/01/07 02:38:01;;;;;;;10.98;6.75;;;5.90;99.90;;;;;;2603155;54;20066;31
2023/01/07 02:40:40;;;;;;;11.73;6.23;;;5.90;99.90;;;;;;2603522;54;20954;31
2023/01/07 02:43:18;;;;;;;11.35;6.75;;;5.80;99.90;;;;;;2603688;54;20050;31
2023/01/07 02:45:56;;;;;;;9.65;6.05;;;5.80;99.90;;;;;;2701998;39;21494;31
2023/01/07 02:48:35;;;;;;;11.33;6.67;;;5.70;99.90;;;;;;2621548;46;20019;31
2023/01/07 02:51:11;;;;;;;12.88;7.47;;;5.60;99.90;;;;;;2603455;54;20273;31
2023/01/07 02:53:49;;;;;;;17.27;8.80;;;5.70;99.90;;;;;;2603494;54;20052;31
2023/01/07 02:56:23;;;;;;;19.20;10.45;;;5.60;99.90;;;;;;2603425;54;20053;31
2023/01/07 02:59:13;;;;;;;24.05;12.73;;;5.60;99.90;;;;;;2622357;46;20872;31
2023/01/07 03:02:09;;;;;;;38.75;13.15;;;5.50;99.90;;;;;;2603697;54;20857;31
2023/01/07 03:05:03;;;;;;;114.70;17.45;;;5.30;99.90;;;;;;2603318;54;20046;31
2023/01/07 03:07:45;;;;;;;29.48;14.00;;;5.40;99.90;;;;;;2603275;54;20112;31
2023/01/07 03:10:24;;;;;;;25.40;14.40;;;5.30;99.90;;;;;;2603523;54;20053;31
2023/01/07 03:13:02;;;;;;;21.63;13.85;;;5.30;99.90;;;;;;2602619;54;20022;31
2023/01/07 03:15:39;;;;;;;22.08;15.10;;;5.30;99.90;;;;;;2602718;54;20116;31
2023/01/07 03:18:16;;;;;;;17.75;12.60;;;5.30;99.90;;;;;;2603420;54;20086;31
2023/01/07 03:20:55;;;;;;;16.95;12.65;;;5.20;99.90;;;;;;2603371;54;20030;31
2023/01/07 03:23:30;;;;;;;14.20;9.60;;;5.20;99.90;;;;;;2603315;54;20050;31
2023/01/07 03:26:06;;;;;;;16.77;9.87;;;5.30;99.90;;;;;;2603529;54;20164;31
2023/01/07 03:28:42;;;;;;;14.30;8.95;;;5.20;99.90;;;;;;2603626;54;20022;31
2023/01/07 03:31:17;;;;;;;16.50;10.48;;;5.20;99.90;;;;;;2621666;46;20052;31
2023/01/07 03:33:54;;;;;;;18.00;9.90;;;5.20;99.90;;;;;;2621863;46;20026;31
2023/01/07 03:36:33;;;;;;;12.23;8.30;;;5.10;99.90;;;;;;2603486;54;20293;31
2023/01/07 03:39:09;;;;;;;18.05;8.90;;;5.20;99.90;;;;;;2622055;46;20796;31
2023/01/07 03:44:33;;;;;;;23.50;9.13;;;5.10;99.90;;;;;;2603581;54;20022;31
2023/01/07 03:47:15;;;;;;;98.25;14.30;;;5.10;99.90;;;;;;2603429;54;19934;31
2023/01/07 03:49:50;;;;;;;19.13;11.00;;;5.10;99.90;;;;;;2603086;54;20030;31
2023/01/07 03:52:29;;;;;;;15.35;10.05;;;5.00;99.90;;;;;;2603268;54;20093;31
2023/01/07 03:55:05;;;;;;;15.25;8.95;;;4.90;99.90;;;;;;2603238;54;20027;31
2023/01/07 03:57:40;;;;;;;13.40;9.38;;;4.90;99.90;;;;;;2603451;54;20876;31
2023/01/07 04:00:17;;;;;;;12.38;7.38;;;4.80;99.90;;;;;;2603547;54;20683;31
2023/01/07 04:03:01;;;;;;;10.65;7.35;;;4.80;99.90;;;;;;2603359;54;20023;31
2023/01/07 04:05:44;;;;;;;10.55;6.75;;;4.70;99.90;;;;;;2603463;54;20852;31
2023/01/07 04:08:24;;;;;;;13.48;9.63;;;4.70;99.90;;;;;;2603418;54;20023;31
2023/01/07 04:11:01;;;;;;;13.25;9.45;;;4.70;99.90;;;;;;2603417;54;20842;31
2023/01/07 04:13:37;;;;;;;11.00;8.30;;;4.60;99.90;;;;;;2603251;54;20143;31
2023/01/07 04:16:11;;;;;;;;;;;4.60;99.90;;;;;;2603538;54;19954;31
2023/01/07 04:18:53;;;;;;;11.85;7.85;;;4.50;99.90;;;;;;2603190;54;20464;31
2023/01/07 04:21:29;;;;;;;12.10;8.83;;;4.60;99.90;;;;;;2603153;54;20022;31
2023/01/07 04:24:08;;;;;;;20.20;12.83;;;4.50;99.90;;;;;;2603575;54;20266;31
2023/01/07 04:26:44;;;;;;;22.63;10.80;;;4.50;99.90;;;;;;2603329;54;21238;31
2023/01/07 04:29:21;;;;;;;13.20;9.30;;;4.40;99.90;;;;;;2603188;54;20046;31
2023/01/07 04:31:57;;;;;;;51.63;11.02;;;4.40;99.90;;;;;;2603372;54;20027;31
2023/01/07 04:34:32;;;;;;;118.53;13.95;;;4.40;99.90;;;;;;2603141;54;20872;31
2023/01/07 04:37:06;;;;;;;10.00;7.07;;;4.30;99.90;;;;;;2603333;54;20041;31
2023/01/07 04:39:46;;;;;;;11.95;7.45;;;4.20;99.90;;;;;;2603356;54;20816;31
2023/01/07 04:42:22;;;;;;;11.45;8.80;;;4.20;99.90;;;;;;2603246;54;20149;31
2023/01/07 04:45:01;;;;;;;11.40;6.90;;;4.20;99.90;;;;;;2603276;54;20022;31
2023/01/07 04:47:36;;;;;;;10.73;7.33;;;4.20;99.90;;;;;;2603251;54;20027;31
2023/01/07 04:50:12;;;;;;;13.90;8.10;;;4.20;99.90;;;;;;2621865;46;21024;31
2023/01/07 04:52:48;;;;;;;9.48;6.50;;;4.10;99.90;;;;;;2603103;54;20034;31
2023/01/07 04:55:26;;;;;;;11.02;7.50;;;4.10;99.90;;;;;;2603322;54;20859;31
2023/01/07 04:58:02;;;;;;;14.85;8.43;;;4.10;99.90;;;;;;2603148;54;20046;31
2023/01/07 05:00:37;;;;;;;16.17;10.63;;;4.00;99.90;;;;;;2603024;54;20038;31
2023/01/07 05:03:12;;;;;;;12.20;8.77;;;4.10;99.90;;;;;;2603235;54;20042;31
2023/01/07 05:05:47;;;;;;;15.97;9.73;;;4.10;99.90;;;;;;2603325;54;20931;31
2023/01/07 05:08:23;;;;;;;11.15;7.93;;;4.10;99.90;;;;;;2603215;54;20253;31
2023/01/07 05:11:04;;;;;;;11.63;7.53;;;4.10;99.90;;;;;;2603210;54;20895;31
2023/01/07 05:13:40;;;;;;;10.77;7.28;;;4.10;99.90;;;;;;2603137;54;20103;31
2023/01/07 05:16:15;;;;;;;16.70;11.10;;;4.10;99.90;;;;;;2603043;54;20985;31
2023/01/07 05:18:51;;;;;;;19.65;11.73;;;4.20;99.90;;;;;;2621735;46;20324;31
2023/01/07 05:21:27;;;;;;;15.00;11.15;;;4.10;99.90;;;;;;2603089;54;20890;31
2023/01/07 05:24:02;;;;;;;16.40;11.15;;;4.10;99.90;;;;;;2602958;54;20985;31
2023/01/07 05:26:40;;;;;;;12.25;8.63;;;4.10;99.90;;;;;;2603095;54;20951;31
2023/01/07 05:29:17;;;;;;;14.40;9.10;;;4.10;99.90;;;;;;2603191;54;20038;31
2023/01/07 05:31:53;;;;;;;11.82;8.30;;;4.20;99.90;;;;;;2603015;54;20925;31
2023/01/07 05:34:29;;;;;;;13.23;9.73;;;4.10;99.90;;;;;;2603076;54;20054;31
2023/01/07 05:37:06;;;;;;;13.65;9.82;;;4.10;99.90;;;;;;2602975;54;20030;31
2023/01/07 05:39:42;;;;;;;20.35;13.85;;;4.20;99.90;;;;;;2603145;54;20908;31
2023/01/07 05:42:24;;;;;;;23.00;13.15;;;4.20;99.90;;;;;;2602970;54;20810;31
2023/01/07 05:44:59;;;;;;;21.30;13.93;;;4.10;99.90;;;;;;2603001;54;20041;31
2023/01/07 05:47:34;;;;;;;24.87;15.30;;;4.20;99.90;;;;;;2602773;54;20023;31
2023/01/07 05:50:10;;;;;;;25.33;14.53;;;4.20;99.90;;;;;;2603014;54;20088;31
2023/01/07 05:52:45;;;;;;;29.45;18.60;;;4.20;99.90;;;;;;2602891;54;20846;31
2023/01/07 05:55:21;;;;;;;27.05;17.85;;;4.20;99.90;;;;;;2621192;47;20043;31
2023/01/07 05:57:58;;;;;;;24.00;15.88;;;4.20;99.90;;;;;;2602862;54;20026;31
2023/01/07 06:00:33;;;;;;;23.95;14.85;;;4.20;99.90;;;;;;2602823;54;20046;31
2023/01/07 06:03:08;;;;;;;15.73;10.57;;;4.20;99.90;;;;;;2602916;54;20057;31
2023/01/07 06:05:43;;;;;;;15.30;9.00;;;4.30;99.90;;;;;;2602875;54;20897;31
2023/01/07 06:08:18;;;;;;;17.48;10.45;;;4.20;99.90;;;;;;2602282;54;19949;31
2023/01/07 06:10:53;;;;;;;16.88;11.02;;;4.20;99.90;;;;;;2602923;54;20030;31
2023/01/07 06:13:32;;;;;;;11.77;8.50;;;4.20;99.90;;;;;;2603503;54;20872;31
2023/01/07 06:16:06;;;;;;;17.30;11.90;;;4.10;99.90;;;;;;2603587;54;20030;31
2023/01/07 06:18:44;;;;;;;28.30;19.30;;;4.20;99.90;;;;;;2603988;54;20556;31
2023/01/07 06:21:20;;;;;;;35.53;23.70;;;4.20;99.90;;;;;;2603766;54;20109;31
2023/01/07 06:23:58;;;;;;;43.53;30.43;;;4.20;99.90;;;;;;2603816;54;20023;31
2023/01/07 06:26:33;;;;;;;28.10;19.63;;;4.10;99.90;;;;;;2603636;54;20050;31
2023/01/07 06:29:09;;;;;;;21.67;14.02;;;4.30;99.90;;;;;;2603864;54;20582;31
2023/01/07 06:31:45;;;;;;;18.43;12.13;;;4.20;99.90;;;;;;2603568;54;20989;31
2023/01/07 06:34:19;;;;;;;21.43;13.17;;;4.20;99.90;;;;;;2603200;54;20844;31
2023/01/07 06:37:00;;;;;;;18.10;12.40;;;4.20;99.90;;;;;;2621877;46;20034;31
2023/01/07 06:39:34;;;;;;;13.85;8.90;;;4.20;99.90;;;;;;2603530;54;20249;31
2023/01/07 06:42:08;;;;;;;16.63;10.35;;;4.20;99.90;;;;;;2603542;54;20025;31
2023/01/07 06:44:47;;;;;;;22.33;14.32;;;4.30;99.90;;;;;;2603612;54;20923;31
2023/01/07 06:47:24;;;;;;;18.45;13.38;;;4.30;99.90;;;;;;2603704;54;20882;31
2023/01/07 06:49:59;;;;;;;21.25;13.30;;;4.30;99.90;;;;;;2603472;54;20030;31
2023/01/07 06:52:35;;;;;;;21.73;15.80;;;4.30;99.90;;;;;;2603652;54;19934;31
2023/01/07 06:55:09;;;;;;;20.92;14.00;;;4.40;99.90;;;;;;2603785;54;20026;31
2023/01/07 06:57:45;;;;;;;23.25;15.95;;;4.40;99.90;;;;;;2602987;54;20054;31
2023/01/07 07:00:23;;;;;;;25.55;15.80;;;4.40;99.90;;;;;;2603660;54;20164;31
2023/01/07 07:02:58;;;;;;;24.90;16.15;;;4.40;99.90;;;;;;2603609;54;21392;31
2023/01/07 07:05:34;;;;;;;18.92;13.85;;;4.40;99.90;;;;;;2603423;54;20030;31
2023/01/07 07:08:10;;;;;;;25.05;15.60;;;4.50;99.90;;;;;;2603658;54;20025;31
2023/01/07 07:10:46;;;;;;;27.42;14.57;;;4.50;99.90;;;;;;2603436;54;20022;31
2023/01/07 07:13:22;;;;;;;;;;;4.70;99.90;;;;;;2603655;54;20070;31
2023/01/07 07:16:00;;;;;;;19.77;13.98;;;4.70;99.90;;;;;;2609617;46;19942;31
2023/01/07 07:18:37;;;;;;;18.70;12.73;;;4.80;99.90;;;;;;2602685;54;20032;31
2023/01/07 07:21:12;;;;;;;20.30;15.10;;;4.80;99.90;;;;;;2603454;54;20030;31
2023/01/07 07:23:47;;;;;;;24.95;18.23;;;4.80;99.90;;;;;;2603522;54;20030;31
2023/01/07 07:26:24;;;;;;;25.48;15.82;;;4.80;99.90;;;;;;2603196;54;20889;31
2023/01/07 07:29:00;;;;;;;28.40;14.65;;;4.90;99.90;;;;;;2603583;54;20148;31
2023/01/07 07:31:38;;;;;;;26.88;16.20;;;4.90;99.90;;;;;;2621741;46;20865;31
2023/01/07 07:34:14;;;;;;;23.08;16.92;;;5.10;99.90;;;;;;2603412;54;20046;31
2023/01/07 07:36:50;;;;;;;18.55;13.23;;;5.20;99.90;;;;;;2603500;54;20850;31
2023/01/07 07:39:28;;;;;;;24.17;15.90;;;5.20;99.90;;;;;;2603511;54;20553;31
2023/01/07 07:42:05;;;;;;;17.95;13.23;;;5.20;99.90;;;;;;2603382;54;20088;31
2023/01/07 07:44:43;;;;;;;22.50;15.75;;;5.20;99.90;;;;;;2603495;54;20052;31
2023/01/07 07:47:22;;;;;;;24.45;14.95;;;5.20;99.90;;;;;;2603506;54;20031;31
2023/01/07 07:49:59;;;;;;;20.05;13.82;;;5.20;99.90;;;;;;2603341;54;20976;31
2023/01/07 07:52:37;;;;;;;22.73;14.93;;;5.20;99.90;;;;;;2603452;54;20844;31
2023/01/07 07:55:13;;;;;;;18.13;12.40;;;5.20;99.90;;;;;;2603433;54;20027;31
2023/01/07 07:57:57;;;;;;;21.93;14.97;;;5.20;99.90;;;;;;2603448;54;20958;31
2023/01/07 08:00:33;;;;;;;24.10;16.00;;;5.30;99.90;;;;;;2603264;54;20140;31
2023/01/07 08:03:11;;;;;;;24.15;16.65;;;5.30;99.90;;;;;;2621621;46;20120;31
2023/01/07 08:05:46;;;;;;;20.92;14.63;;;5.40;99.90;;;;;;2602637;54;20057;31
2023/01/07 08:08:26;;;;;;;22.47;14.43;;;5.40;99.90;;;;;;2602706;54;20060;31
2023/01/07 08:11:02;;;;;;;15.73;11.45;;;5.60;99.90;;;;;;2603036;54;20031;31
2023/01/07 08:13:40;;;;;;;21.63;15.73;;;5.80;99.90;;;;;;2603322;54;20889;31
2023/01/07 08:16:14;;;;;;;20.92;15.15;;;5.90;99.90;;;;;;2603598;54;20899;31
2023/01/07 08:18:53;;;;;;;27.15;17.27;;;5.90;99.90;;;;;;2603186;54;20060;31
2023/01/07 08:21:28;;;;;;;21.85;15.93;;;5.90;99.90;;;;;;2603535;54;20886;31
2023/01/07 08:24:04;;;;;;;24.40;15.10;;;5.90;99.90;;;;;;2603364;54;20031;31
2023/01/07 08:26:40;;;;;;;22.40;15.98;;;5.90;99.90;;;;;;2603206;54;20121;31
2023/01/07 08:29:16;;;;;;;26.02;17.88;;;5.90;99.90;;;;;;2603422;54;20165;31
2023/01/07 08:31:52;;;;;;;38.15;25.48;;;5.90;99.90;;;;;;2603215;54;20923;31
2023/01/07 08:34:31;;;;;;;35.72;22.10;;;5.90;99.90;;;;;;2603303;54;20026;31
2023/01/07 08:37:06;;;;;;;37.88;22.15;;;5.80;99.90;;;;;;2602982;54;20029;31
2023/01/07 08:39:40;;;;;;;31.90;19.13;;;5.80;99.90;;;;;;2603124;54;20952;31
2023/01/07 08:42:16;;;;;;;24.40;16.37;;;5.80;99.90;;;;;;2621591;46;20034;31
2023/01/07 08:44:52;;;;;;;24.77;15.60;;;5.90;99.90;;;;;;2603142;54;20801;31
2023/01/07 08:47:30;;;;;;;39.83;24.30;;;5.80;99.90;;;;;;2603079;54;21040;31
2023/01/07 08:50:09;;;;;;;50.40;29.15;;;5.90;99.90;;;;;;2602986;54;20034;31
2023/01/07 08:52:43;;;;;;;68.90;32.63;;;5.90;99.90;;;;;;2603321;54;20901;31
2023/01/07 08:55:18;;;;;;;49.17;27.08;;;6.00;99.90;;;;;;2603161;54;20082;31
2023/01/07 08:57:54;;;;;;;41.17;25.77;;;6.00;99.90;;;;;;2603034;54;20979;31
2023/01/07 09:00:29;;;;;;;36.93;23.87;;;5.90;99.90;;;;;;2603186;54;20906;31
2023/01/07 09:03:05;;;;;;;38.13;26.40;;;6.00;99.90;;;;;;2602987;54;20830;31
2023/01/07 09:05:43;;;;;;;76.13;54.88;;;6.00;99.90;;;;;;2602902;54;20964;31
2023/01/07 09:08:17;;;;;;;41.70;27.75;;;6.00;99.90;;;;;;2603380;54;20039;31
2023/01/07 09:10:53;;;;;;;32.67;21.90;;;6.00;99.90;;;;;;2603249;54;20035;31
2023/01/07 09:13:30;;;;;;;34.53;23.27;;;6.10;99.90;;;;;;2701643;39;21386;31
2023/01/07 09:16:06;;;;;;;38.50;25.95;;;6.10;99.90;;;;;;2603217;54;20988;31
2023/01/07 09:18:42;;;;;;;36.40;23.60;;;6.10;99.90;;;;;;2621440;46;20994;31
2023/01/07 09:21:20;;;;;;;32.90;21.45;;;6.20;99.90;;;;;;2603389;54;20031;31
2023/01/07 09:23:56;;;;;;;35.33;22.35;;;6.20;99.90;;;;;;2603220;54;20034;31
2023/01/07 09:26:32;;;;;;;29.50;21.80;;;6.20;99.90;;;;;;2602936;54;20934;31
2023/01/07 09:29:07;;;;;;;;;;;6.20;99.90;;;;;;2603051;54;20885;31
2023/01/07 09:31:43;;;;;;;34.20;21.63;;;6.30;99.90;;;;;;2602932;54;20794;31
2023/01/07 09:34:20;;;;;;;33.40;22.60;;;6.30;99.90;;;;;;2602960;54;20851;31
2023/01/07 09:36:58;;;;;;;33.20;22.05;;;6.30;99.90;;;;;;2602998;54;20042;31
2023/01/07 09:39:34;;;;;;;33.05;22.45;;;6.40;99.90;;;;;;2602798;54;20731;31
2023/01/07 09:42:14;;;;;;;30.98;20.10;;;6.50;99.90;;;;;;2603075;54;20554;31
2023/01/07 09:44:59;;;;;;;30.35;20.25;;;6.60;99.90;;;;;;2602263;54;20746;31
2023/01/07 09:47:36;;;;;;;30.52;22.63;;;6.80;99.90;;;;;;2603555;54;20048;31
2023/01/07 09:50:16;;;;;;;31.45;22.17;;;7.10;99.90;;;;;;2603922;54;20026;31
2023/01/07 09:52:56;;;;;;;27.00;19.50;;;7.40;99.90;;;;;;2603672;54;20935;31
2023/01/07 09:55:33;;;;;;;25.10;18.52;;;7.60;99.90;;;;;;2603952;54;20139;31
2023/01/07 09:58:10;;;;;;;22.67;16.90;;;7.80;99.90;;;;;;2622234;46;20917;31
2023/01/07 10:00:51;;;;;;;22.10;17.63;;;8.10;99.90;;;;;;2603467;54;20026;31
2023/01/07 10:03:48;;;;;;;22.98;17.23;;;8.20;99.90;;;;;;2603553;54;20927;31
2023/01/07 10:06:24;;;;;;;25.23;19.02;;;8.30;99.90;;;;;;2603494;54;20026;31
2023/01/07 10:09:25;;;;;;;33.83;22.52;;;8.30;99.90;;;;;;2603755;54;20893;31
2023/01/07 10:12:02;;;;;;;38.40;24.13;;;8.20;99.90;;;;;;2603779;54;20026;31
2023/01/07 10:14:54;;;;;;;37.97;24.13;;;8.20;99.90;;;;;;2603748;54;20035;31
2023/01/07 10:17:35;;;;;;;34.72;22.45;;;8.10;99.90;;;;;;2603753;54;20107;31
2023/01/07 10:20:14;;;;;;;35.35;25.40;;;8.10;99.90;;;;;;2603715;54;20036;31
2023/01/07 10:22:52;;;;;;;27.60;21.00;;;8.10;99.90;;;;;;2602761;54;20025;31
2023/01/07 10:25:32;;;;;;;28.20;18.45;;;8.10;99.90;;;;;;2603841;54;20301;31
2023/01/07 10:28:08;;;;;;;26.08;19.33;;;8.10;99.90;;;;;;2602801;54;20136;31
2023/01/07 10:30:45;;;;;;;24.77;17.40;;;8.10;99.90;;;;;;2603717;54;20030;31
2023/01/07 10:33:24;;;;;;;;;;;8.20;99.90;;;;;;2603846;54;20926;31
2023/01/07 10:36:03;;;;;;;18.00;13.95;;;8.20;99.90;;;;;;2603604;54;20854;31
2023/01/07 10:38:39;;;;;;;20.70;13.80;;;8.20;99.90;;;;;;2603571;54;20029;31
2023/01/07 10:41:17;;;;;;;;;;;8.20;99.90;;;;;;2603987;54;19938;31
2023/01/07 10:44:02;;;;;;;18.10;11.40;;;8.20;99.90;;;;;;2603874;54;19934;31
2023/01/07 10:46:45;;;;;;;13.38;9.65;;;8.20;99.90;;;;;;2608633;39;22541;31
2023/01/07 10:49:30;;;;;;;11.37;9.97;;;8.30;99.90;;;;;;2603357;54;20022;31
2023/01/07 10:52:18;;;;;;;15.32;10.52;;;8.30;99.90;;;;;;2603716;54;20811;31
2023/01/07 10:55:13;;;;;;;11.90;9.55;;;8.40;99.90;;;;;;2603396;54;20884;31
2023/01/07 10:57:48;;;;;;;11.77;9.73;;;8.40;99.90;;;;;;2603113;54;20026;31
2023/01/07 11:00:27;;;;;;;11.82;9.38;;;8.50;99.90;;;;;;2603456;54;20377;31
2023/01/07 11:03:01;;;;;;;12.15;9.57;;;8.50;99.90;;;;;;2603473;54;20553;31
2023/01/07 11:05:39;;;;;;;15.53;10.60;;;8.60;99.90;;;;;;2603529;54;20033;31
2023/01/07 11:08:17;;;;;;;15.73;12.15;;;8.60;99.90;;;;;;2603358;54;20928;31
2023/01/07 11:10:54;;;;;;;13.57;10.48;;;8.70;99.90;;;;;;2603447;54;20033;31
2023/01/07 11:13:33;;;;;;;11.88;9.20;;;8.80;99.90;;;;;;2603675;54;20089;31
2023/01/07 11:16:12;;;;;;;16.02;9.90;;;8.80;99.90;;;;;;2702183;39;20438;31
2023/01/07 11:18:51;;;;;;;13.77;10.63;;;8.90;99.90;;;;;;2702076;39;20373;31
2023/01/07 11:21:38;;;;;;;14.10;9.20;;;8.90;99.90;;;;;;2602705;54;19961;31
2023/01/07 11:24:32;;;;;;;11.85;9.10;;;9.00;99.90;;;;;;2603464;54;20976;31
2023/01/07 11:27:09;;;;;;;10.02;7.93;;;9.10;99.90;;;;;;2603337;54;20881;31
2023/01/07 11:29:47;;;;;;;11.95;8.35;;;9.20;99.90;;;;;;2603487;54;20022;31
2023/01/07 11:32:28;;;;;;;9.88;6.57;;;9.30;99.90;;;;;;2603334;54;20938;31
2023/01/07 11:35:03;;;;;;;8.95;6.75;;;9.40;99.90;;;;;;2621769;46;20076;31
2023/01/07 11:37:40;;;;;;;8.85;6.70;;;9.40;99.90;;;;;;2603346;54;20032;31
2023/01/07 11:40:22;;;;;;;;;;;9.50;99.90;;;;;;2621950;46;20139;31
2023/01/07 11:42:58;;;;;;;11.38;7.93;;;9.60;99.90;;;;;;2603413;54;19950;31
2023/01/07 11:45:34;;;;;;;9.43;7.40;;;9.60;99.90;;;;;;2603502;54;20030;31
2023/01/07 11:48:17;;;;;;;9.47;7.43;;;9.70;99.90;;;;;;2603706;54;20612;31
2023/01/07 11:50:58;;;;;;;10.43;7.95;;;9.70;99.90;;;;;;2603291;54;20247;31
2023/01/07 11:53:36;;;;;;;10.15;7.50;;;9.80;99.90;;;;;;2603357;54;20027;31
2023/01/07 11:56:13;;;;;;;11.15;7.60;;;9.80;99.90;;;;;;2603306;54;20854;31
2023/01/07 11:58:50;;;;;;;9.10;6.68;;;9.90;99.90;;;;;;2603293;54;20038;31
2023/01/07 12:01:27;;;;;;;10.60;7.90;;;10.00;99.90;;;;;;2603279;54;20820;31
2023/01/07 12:04:14;;;;;;;11.93;7.90;;;10.00;99.90;;;;;;2603417;54;21384;31
2023/01/07 12:06:52;;;;;;;12.90;8.20;;;10.10;99.90;;;;;;2603304;54;20033;31
2023/01/07 12:09:36;;;;;;;13.07;8.50;;;10.10;99.90;;;;;;2603522;54;20071;31
2023/01/07 12:15:01;;;;;;;9.48;6.43;;;10.10;99.90;;;;;;2603239;54;20137;31
2023/01/07 12:17:38;;;;;;;13.55;8.10;;;10.20;99.90;;;;;;2603325;54;20034;31
2023/01/07 12:20:34;;;;;;;9.40;7.20;;;10.20;99.90;;;;;;2603521;54;20057;31
2023/01/07 12:23:16;;;;;;;11.07;6.93;;;10.30;99.90;;;;;;2603358;54;20972;31
2023/01/07 12:25:51;;;;;;;9.70;6.40;;;10.30;99.90;;;;;;2603239;54;20085;31
2023/01/07 12:28:30;;;;;;;10.20;7.50;;;10.40;99.90;;;;;;2603454;54;20783;31
2023/01/07 12:31:33;;;;;;;9.57;7.97;;;10.30;99.90;;;;;;2646713;53;20091;31
2023/01/07 12:34:12;;;;;;;8.45;6.65;;;10.30;99.90;;;;;;2607164;54;20923;31
2023/01/07 12:36:48;;;;;;;9.43;6.77;;;10.30;99.90;;;;;;2607567;54;20026;31
2023/01/07 12:39:26;;;;;;;10.00;7.50;;;10.30;99.90;;;;;;2607449;54;20028;31
2023/01/07 12:42:04;;;;;;;11.70;7.40;;;10.30;99.90;;;;;;2607370;54;20871;31
2023/01/07 12:44:38;;;;;;;10.85;7.60;;;10.30;99.90;;;;;;2607502;54;20022;31
2023/01/07 12:47:18;;;;;;;11.90;7.10;;;10.30;99.90;;;;;;2607345;54;20825;31
2023/01/07 12:50:09;;;;;;;10.17;6.90;;;10.30;99.90;;;;;;2607433;54;20026;31
2023/01/07 12:52:43;;;;;;;10.13;6.85;;;10.30;99.90;;;;;;2607182;54;20053;31
2023/01/07 12:55:20;;;;;;;10.07;6.30;;;10.30;99.90;;;;;;2607385;54;20053;31
2023/01/07 12:58:05;;;;;;;7.80;6.50;;;10.30;99.90;;;;;;2607316;54;20022;31
2023/01/07 13:00:46;;;;;;;8.50;5.25;;;10.30;99.90;;;;;;2607347;54;19996;31
2023/01/07 13:03:27;;;;;;;8.00;6.03;;;10.40;99.90;;;;;;2607433;54;20029;31
2023/01/07 13:06:03;;;;;;;6.53;5.83;;;10.40;99.90;;;;;;2606807;54;20829;31
2023/01/07 13:08:43;;;;;;;6.90;5.53;;;10.40;99.90;;;;;;2607236;54;20042;31
2023/01/07 13:12:41;;;;;;;7.35;5.32;;;10.40;99.90;;;;;;2607350;54;20857;31
2023/01/07 13:14:20;;;;;;;5.87;4.47;;;10.40;99.90;;;;;;2607066;54;20157;31
2023/01/07 13:16:55;;;;;;;5.30;4.22;;;10.40;99.90;;;;;;2607636;54;20949;31
2023/01/07 13:19:33;;;;;;;5.47;3.88;;;10.40;99.90;;;;;;2607295;54;20030;31
2023/01/07 13:22:10;;;;;;;6.25;4.70;;;10.40;99.90;;;;;;2607493;54;20111;31
2023/01/07 13:24:51;;;;;;;6.80;5.22;;;10.40;99.90;;;;;;2717077;38;21612;31
2023/01/07 13:27:29;;;;;;;5.45;4.38;;;10.40;99.90;;;;;;2607614;54;20027;31
2023/01/07 13:30:12;;;;;;;6.25;4.88;;;10.40;99.90;;;;;;2607423;54;20034;31
2023/01/07 13:32:57;;;;;;;7.35;5.20;;;10.40;99.90;;;;;;2607432;54;20030;31
2023/01/07 13:35:55;;;;;;;5.70;5.00;;;10.40;99.90;;;;;;2607146;54;20136;31
2023/01/07 13:38:46;;;;;;;6.30;4.65;;;10.40;99.90;;;;;;2607142;54;20084;31
2023/01/07 13:41:35;;;;;;;6.70;4.88;;;10.30;99.90;;;;;;2605222;54;20867;31
2023/01/07 13:44:09;;;;;;;5.55;4.68;;;10.30;99.90;;;;;;2622207;46;20030;31
2023/01/07 13:46:46;;;;;;;5.57;4.15;;;10.30;99.90;;;;;;2603710;54;20097;31
2023/01/07 13:49:27;;;;;;;5.97;4.35;;;10.30;99.90;;;;;;2603583;54;20876;31
2023/01/07 13:52:14;;;;;;;5.43;4.15;;;10.30;99.90;;;;;;2603679;54;20027;31
2023/01/07 13:55:02;;;;;;;5.60;4.22;;;10.30;99.90;;;;;;2603618;54;20884;31
2023/01/07 13:57:47;;;;;;;5.20;3.60;;;10.30;99.90;;;;;;2603441;54;20030;31
2023/01/07 14:00:44;;;;;;;6.63;4.25;;;10.20;99.90;;;;;;2603483;54;20081;31
2023/01/07 14:03:48;;;;;;;7.95;4.45;;;10.20;99.90;;;;;;2603843;54;20042;31
2023/01/07 14:06:49;;;;;;;8.17;3.77;;;10.20;99.90;;;;;;2603489;54;20065;31